createdAt,value
2018-07-09T00:00:22.188Z,8.27
2018-07-09T00:02:55.568Z,7.33
2018-07-09T00:05:25.440Z,9.13
2018-07-09T00:07:59.308Z,8.27
2018-07-09T00:10:40.496Z,9.23
2018-07-09T00:13:11.468Z,7.60
2018-07-09T00:15:41.408Z,7.13
2018-07-09T00:18:13.675Z,9.00
2018-07-09T00:20:42.624Z,8.20
2018-07-09T00:23:11.497Z,8.77
2018-07-09T00:25:42.307Z,8.80
2018-07-09T00:28:15.730Z,8.00
2018-07-09T00:31:05.072Z,8.43
2018-07-09T00:33:33.988Z,7.43
2018-07-09T00:36:04.824Z,9.03
2018-07-09T00:38:33.680Z,8.53
2018-07-09T00:41:09.324Z,8.60
2018-07-09T00:43:38.211Z,9.63
2018-07-09T00:46:07.139Z,8.50
2018-07-09T00:48:37.016Z,8.07
2018-07-09T00:51:05.821Z,10.90
2018-07-09T00:53:38.400Z,8.50
2018-07-09T00:56:07.283Z,10.20
2018-07-09T00:58:42.728Z,8.70
2018-07-09T01:01:15.227Z,10.43
2018-07-09T01:03:43.892Z,9.00
2018-07-09T01:06:26.332Z,11.17
2018-07-09T01:08:57.136Z,9.60
2018-07-09T01:11:39.035Z,8.53
2018-07-09T01:14:09.077Z,10.83
2018-07-09T01:16:42.704Z,9.70
2018-07-09T01:19:12.580Z,9.63
2018-07-09T01:21:41.336Z,8.70
2018-07-09T01:24:11.164Z,10.53
2018-07-09T01:26:43.372Z,11.63
2018-07-09T01:29:16.228Z,12.00
2018-07-09T01:31:54.680Z,8.03
2018-07-09T01:34:33.424Z,10.00
2018-07-09T01:37:02.328Z,9.73
2018-07-09T01:39:31.212Z,10.63
2018-07-09T01:42:00.112Z,10.43
2018-07-09T01:44:32.440Z,12.00
2018-07-09T01:47:02.304Z,10.10
2018-07-09T01:49:41.732Z,11.63
2018-07-09T01:52:13.476Z,9.43
2018-07-09T01:54:47.296Z,11.13
2018-07-09T01:57:26.520Z,9.77
2018-07-09T01:59:55.440Z,10.00
2018-07-09T02:02:26.216Z,11.23
2018-07-09T02:04:56.852Z,14.60
2018-07-09T02:07:27.636Z,15.37
2018-07-09T02:09:58.512Z,12.80
2018-07-09T02:12:37.556Z,11.83
2018-07-09T02:15:09.357Z,11.40
2018-07-09T02:17:40.045Z,11.03
2018-07-09T02:20:10.934Z,11.03
2018-07-09T02:22:42.952Z,10.20
2018-07-09T02:25:13.204Z,11.00
2018-07-09T02:27:42.072Z,11.20
2018-07-09T02:30:11.016Z,11.40
2018-07-09T02:32:39.884Z,33.17
2018-07-09T02:35:08.804Z,10.97
2018-07-09T02:37:37.661Z,11.70
2018-07-09T02:40:12.117Z,10.33
2018-07-09T02:42:42.096Z,10.80
2018-07-09T02:45:12.008Z,13.20
2018-07-09T02:47:42.848Z,12.10
2018-07-09T02:50:11.717Z,16.03
2018-07-09T02:52:41.502Z,11.13
2018-07-09T02:55:14.924Z,14.07
2018-07-09T02:57:43.764Z,11.77
2018-07-09T03:00:13.672Z,12.33
2018-07-09T03:02:47.420Z,11.83
2018-07-09T03:05:16.215Z,14.40
2018-07-09T03:07:45.142Z,12.43
2018-07-09T03:10:19.637Z,11.47
2018-07-09T03:12:52.036Z,11.60
2018-07-09T03:15:20.888Z,10.63
2018-07-09T03:17:49.784Z,11.90
2018-07-09T03:20:18.697Z,12.23
2018-07-09T03:22:49.521Z,12.40
2018-07-09T03:25:19.337Z,12.03
2018-07-09T03:27:51.260Z,11.50
2018-07-09T03:30:26.681Z,11.87
2018-07-09T03:33:05.704Z,19.20
2018-07-09T03:35:41.452Z,11.53
2018-07-09T03:38:17.516Z,12.70
2018-07-09T03:40:46.352Z,12.40
2018-07-09T03:43:16.132Z,12.50
2018-07-09T03:45:49.852Z,12.60
2018-07-09T03:48:31.584Z,13.43
2018-07-09T03:51:04.731Z,12.57
2018-07-09T03:53:37.632Z,13.87
2018-07-09T03:56:07.466Z,13.07
2018-07-09T03:58:37.331Z,12.33
2018-07-09T04:01:15.792Z,16.93
2018-07-09T04:03:44.644Z,11.57
2018-07-09T04:06:26.288Z,11.00
2018-07-09T04:08:55.129Z,11.60
2018-07-09T04:11:24.095Z,11.50
2018-07-09T04:13:57.928Z,11.77
2018-07-09T04:16:26.796Z,12.07
2018-07-09T04:18:59.388Z,10.90
2018-07-09T04:21:28.272Z,12.27
2018-07-09T04:23:57.055Z,11.33
2018-07-09T04:26:25.868Z,12.33
2018-07-09T04:28:59.856Z,14.27
2018-07-09T04:31:28.697Z,12.67
2018-07-09T04:33:59.492Z,12.97
2018-07-09T04:36:36.952Z,13.80
2018-07-09T04:39:07.508Z,11.70
2018-07-09T04:41:36.764Z,11.73
2018-07-09T04:44:12.248Z,13.77
2018-07-09T04:46:41.028Z,12.40
2018-07-09T04:49:11.832Z,11.73
2018-07-09T04:51:40.626Z,12.73
2018-07-09T04:57:06.464Z,12.70
2018-07-09T04:59:41.840Z,13.40
2018-07-09T05:02:16.420Z,12.00
2018-07-09T05:04:51.000Z,18.87
2018-07-09T05:07:28.032Z,12.37
2018-07-09T05:15:45.033Z,12.77
2018-07-09T05:18:15.889Z,12.67
2018-07-09T05:20:44.819Z,13.63
2018-07-09T05:23:13.684Z,12.90
2018-07-09T05:25:42.512Z,11.70
2018-07-09T05:28:12.381Z,11.50
2018-07-09T05:30:42.335Z,11.20
2018-07-09T05:33:19.325Z,11.23
2018-07-09T05:35:51.536Z,11.30
2018-07-09T05:38:22.348Z,11.07
2018-07-09T05:40:51.248Z,11.63
2018-07-09T05:43:21.068Z,11.73
2018-07-09T05:45:51.959Z,10.87
2018-07-09T05:48:20.820Z,10.63
2018-07-09T05:50:52.736Z,8.20
2018-07-09T05:53:21.672Z,8.03
2018-07-09T05:56:08.652Z,9.03
2018-07-09T05:58:37.471Z,8.43
2018-07-09T06:01:14.524Z,8.67
2018-07-09T06:03:47.905Z,7.57
2018-07-09T06:06:16.759Z,6.70
2018-07-09T06:08:46.012Z,9.23
2018-07-09T06:11:28.238Z,9.87
2018-07-09T06:14:00.099Z,7.20
2018-07-09T06:16:41.040Z,7.97
2018-07-09T06:19:11.807Z,8.13
2018-07-09T06:21:40.736Z,7.07
2018-07-09T06:24:11.539Z,10.23
2018-07-09T06:27:00.451Z,10.07
2018-07-09T06:29:29.291Z,8.73
2018-07-09T06:31:59.172Z,6.60
2018-07-09T06:34:34.883Z,10.00
2018-07-09T06:37:16.391Z,5.87
2018-07-09T06:39:45.119Z,8.53
2018-07-09T06:42:14.879Z,7.70
2018-07-09T06:44:46.774Z,9.50
2018-07-09T06:47:16.490Z,8.07
2018-07-09T06:49:57.834Z,7.30
2018-07-09T06:52:31.567Z,7.90
2018-07-09T06:55:04.351Z,7.17
2018-07-09T06:57:33.203Z,6.40
2018-07-09T07:00:05.805Z,15.60
2018-07-09T07:02:40.104Z,7.60
2018-07-09T07:05:08.979Z,11.27
2018-07-09T07:07:43.731Z,8.20
2018-07-09T07:10:16.144Z,8.90
2018-07-09T07:12:49.120Z,5.67
2018-07-09T07:15:19.861Z,8.80
2018-07-09T07:17:51.743Z,9.37
2018-07-09T07:20:20.466Z,13.40
2018-07-09T07:22:55.287Z,6.27
2018-07-09T07:25:34.435Z,8.90
2018-07-09T07:28:08.907Z,8.90
2018-07-09T07:30:40.823Z,6.63
2018-07-09T07:33:17.494Z,12.97
2018-07-09T07:35:46.354Z,7.97
2018-07-09T07:38:17.101Z,7.83
2018-07-09T07:40:51.907Z,6.70
2018-07-09T07:43:21.655Z,7.33
2018-07-09T07:45:55.557Z,8.27
2018-07-09T07:48:25.283Z,7.10
2018-07-09T07:51:00.831Z,7.30
2018-07-09T07:53:33.139Z,7.00
2018-07-09T07:56:02.938Z,9.57
2018-07-09T07:58:31.670Z,10.00
2018-07-09T08:01:06.091Z,11.60
2018-07-09T08:03:40.335Z,10.73
2018-07-09T08:06:13.151Z,10.57
2018-07-09T08:08:41.910Z,6.63
2018-07-09T08:11:47.725Z,6.33
2018-07-09T08:13:54.538Z,7.40
2018-07-09T08:16:25.322Z,10.20
2018-07-09T08:19:00.047Z,8.10
2018-07-09T08:21:35.859Z,11.30
2018-07-09T08:24:09.571Z,8.40
2018-07-09T08:26:40.413Z,11.70
2018-07-09T08:29:09.178Z,8.37
2018-07-09T08:31:39.955Z,8.00
2018-07-09T08:34:09.687Z,9.47
2018-07-09T08:36:38.563Z,9.00
2018-07-09T08:39:07.358Z,8.07
2018-07-09T08:41:40.312Z,8.83
2018-07-09T08:44:09.090Z,6.83
2018-07-09T08:46:37.866Z,9.23
2018-07-09T08:49:09.874Z,6.10
2018-07-09T08:51:39.379Z,5.00
2018-07-09T08:54:14.731Z,6.33
2018-07-09T08:56:43.574Z,10.13
2018-07-09T08:59:18.559Z,9.20
2018-07-09T09:01:49.363Z,7.70
2018-07-09T09:04:24.115Z,7.20
2018-07-09T09:06:52.955Z,6.03
2018-07-09T09:09:28.027Z,7.20
2018-07-09T09:12:04.795Z,10.30
2018-07-09T09:14:33.663Z,9.47
2018-07-09T09:17:02.466Z,6.80
2018-07-09T09:19:38.368Z,7.83
2018-07-09T09:25:06.598Z,8.83
2018-07-09T09:27:35.418Z,8.60
2018-07-09T09:30:07.370Z,12.03
2018-07-09T09:32:41.169Z,7.37
2018-07-09T09:35:09.922Z,7.40
2018-07-09T09:37:39.658Z,7.07
2018-07-09T09:40:11.909Z,8.17
2018-07-09T09:42:40.614Z,9.20
2018-07-09T09:45:21.150Z,8.93
2018-07-09T09:47:51.886Z,6.77
2018-07-09T09:50:20.621Z,6.53
2018-07-09T09:52:50.097Z,6.00
2018-07-09T09:55:28.546Z,8.77
2018-07-09T09:58:07.979Z,9.60
2018-07-09T10:00:45.126Z,10.80
2018-07-09T10:03:13.866Z,11.90
2018-07-09T10:05:42.682Z,11.57
2018-07-09T10:08:12.413Z,7.97
2018-07-09T10:10:48.765Z,7.67
2018-07-09T10:13:24.458Z,10.40
2018-07-09T10:15:53.175Z,9.63
2018-07-09T10:18:25.597Z,11.40
2018-07-09T10:20:56.342Z,6.57
2018-07-09T10:23:25.072Z,5.93
2018-07-09T10:25:53.874Z,8.73
2018-07-09T10:28:25.806Z,8.70
2018-07-09T10:30:55.546Z,9.43
2018-07-09T10:33:28.278Z,7.47
2018-07-09T10:35:57.070Z,7.00
2018-07-09T10:38:25.902Z,9.27
2018-07-09T10:41:17.474Z,8.87
2018-07-09T10:43:49.938Z,6.87
2018-07-09T10:46:21.890Z,9.13
2018-07-09T10:48:58.058Z,8.27
2018-07-09T10:51:26.794Z,12.90
2018-07-09T10:53:57.510Z,7.40
2018-07-09T10:56:27.271Z,10.07
2018-07-09T10:59:00.150Z,9.13
2018-07-09T11:01:34.474Z,8.47
2018-07-09T11:04:06.926Z,5.40
2018-07-09T11:06:36.754Z,5.70
2018-07-09T11:09:08.734Z,5.57
2018-07-09T11:11:38.458Z,6.77
2018-07-09T11:14:08.223Z,7.13
2018-07-09T11:16:37.094Z,8.67
2018-07-09T11:19:07.839Z,5.67
2018-07-09T11:21:36.735Z,5.90
2018-07-09T11:24:08.614Z,7.53
2018-07-09T11:26:37.341Z,7.43
2018-07-09T11:29:07.087Z,8.70
2018-07-09T11:31:39.158Z,5.67
2018-07-09T11:37:01.938Z,10.67
2018-07-09T11:39:30.742Z,6.70
2018-07-09T11:42:12.079Z,6.90
2018-07-09T11:44:48.406Z,5.07
2018-07-09T11:47:19.070Z,6.03
2018-07-09T11:49:47.894Z,5.20
2018-07-09T11:52:27.070Z,4.70
2018-07-09T11:54:55.946Z,6.63
2018-07-09T11:57:29.888Z,5.43
2018-07-09T11:59:58.631Z,6.43
2018-07-09T12:02:33.458Z,6.07
2018-07-09T12:05:15.707Z,8.50
2018-07-09T12:07:44.531Z,4.97
2018-07-09T12:10:13.338Z,7.80
2018-07-09T12:12:42.103Z,4.63
2018-07-09T12:15:10.838Z,4.57
2018-07-09T12:17:39.968Z,5.60
2018-07-09T12:20:08.798Z,7.30
2018-07-09T12:22:37.550Z,6.20
2018-07-09T12:25:06.314Z,6.83
2018-07-09T12:27:38.242Z,5.87
2018-07-09T12:30:06.973Z,5.20
2018-07-09T12:32:40.066Z,5.47
2018-07-09T12:35:17.294Z,4.33
2018-07-09T12:37:46.092Z,6.00
2018-07-09T12:40:20.930Z,5.70
2018-07-09T12:42:49.678Z,4.40
2018-07-09T12:45:25.426Z,6.07
2018-07-09T12:47:58.024Z,9.03
2018-07-09T12:50:26.846Z,9.63
2018-07-09T12:52:58.957Z,4.17
2018-07-09T12:55:31.690Z,5.90
2018-07-09T12:58:01.462Z,4.77
2018-07-09T13:00:30.227Z,5.70
2018-07-09T13:02:58.962Z,5.83
2018-07-09T13:05:33.538Z,5.30
2018-07-09T13:08:02.251Z,5.90
2018-07-09T13:10:32.354Z,4.87
2018-07-09T13:13:04.450Z,7.03
2018-07-09T13:15:33.178Z,4.70
2018-07-09T13:18:07.175Z,5.93
2018-07-09T13:20:36.005Z,5.93
2018-07-09T13:23:11.245Z,3.90
2018-07-09T13:25:45.774Z,5.50
2018-07-09T13:28:21.018Z,5.43
2018-07-09T13:31:01.933Z,5.10
2018-07-09T13:33:36.319Z,6.93
2018-07-09T13:36:23.356Z,5.93
2018-07-09T13:38:52.214Z,5.00
2018-07-09T13:41:28.078Z,4.80
2018-07-09T13:44:01.150Z,6.87
2018-07-09T13:46:30.949Z,5.03
2018-07-09T13:49:13.630Z,6.57
2018-07-09T13:51:58.014Z,5.53
2018-07-09T13:54:26.820Z,5.20
2018-07-09T13:57:05.910Z,5.10
2018-07-09T13:59:38.378Z,6.60
2018-07-09T14:02:12.726Z,7.57
2018-07-09T14:04:46.997Z,9.90
2018-07-09T14:07:31.058Z,6.77
2018-07-09T14:09:59.818Z,6.90
2018-07-09T14:12:31.990Z,9.20
2018-07-09T14:15:00.865Z,6.63
2018-07-09T14:17:29.614Z,4.30
2018-07-09T14:20:13.682Z,6.80
2018-07-09T14:22:43.419Z,5.03
2018-07-09T14:25:13.156Z,4.83
2018-07-09T14:27:53.006Z,7.47
2018-07-09T14:30:21.759Z,4.30
2018-07-09T14:35:44.558Z,5.80
2018-07-09T14:38:36.142Z,5.33
2018-07-09T14:41:10.534Z,7.70
2018-07-09T14:43:45.021Z,4.60
2018-07-09T14:46:15.738Z,5.53
2018-07-09T14:48:46.470Z,4.83
2018-07-09T14:51:20.226Z,4.37
2018-07-09T14:53:49.950Z,4.90
2018-07-09T14:56:21.910Z,4.10
2018-07-09T14:58:50.742Z,7.33
2018-07-09T15:01:19.466Z,5.10
2018-07-09T15:03:55.026Z,8.53
2018-07-09T15:06:31.826Z,5.20
2018-07-09T15:09:08.678Z,5.07
2018-07-09T15:11:37.735Z,6.40
2018-07-09T15:14:25.961Z,7.80
2018-07-09T15:17:19.454Z,5.40
2018-07-09T15:19:49.273Z,6.57
2018-07-09T15:22:23.714Z,4.30
2018-07-09T15:24:53.490Z,5.50
2018-07-09T15:27:22.226Z,23.70
2018-07-09T15:29:51.043Z,14.67
2018-07-09T15:32:33.617Z,6.43
2018-07-09T15:38:12.917Z,5.90
2018-07-09T15:41:00.921Z,5.43
2018-07-09T15:44:04.061Z,4.03
2018-07-09T15:46:36.198Z,3.50
2018-07-09T15:49:04.945Z,4.60
2018-07-09T15:51:33.665Z,4.07
2018-07-09T15:54:02.518Z,6.23
2018-07-09T15:56:31.293Z,5.70
2018-07-09T15:59:11.501Z,5.23
2018-07-09T16:01:45.077Z,3.33
2018-07-09T16:04:19.425Z,4.97
2018-07-09T16:07:07.970Z,5.20
2018-07-09T16:09:36.811Z,8.00
2018-07-09T16:12:13.289Z,3.43
2018-07-09T16:15:04.537Z,2.97
2018-07-09T16:17:36.893Z,6.90
2018-07-09T16:23:21.585Z,4.07
2018-07-09T16:25:51.325Z,3.90
2018-07-09T16:28:25.405Z,2.60
2018-07-09T16:33:48.817Z,4.50
2018-07-09T16:36:21.415Z,3.37
2018-07-09T16:38:55.801Z,4.00
2018-07-09T16:41:32.669Z,2.70
2018-07-09T16:44:05.405Z,3.93
2018-07-09T16:46:37.941Z,2.80
2018-07-09T16:49:08.621Z,2.93
2018-07-09T16:51:46.561Z,2.83
2018-07-09T16:54:15.301Z,2.70
2018-07-09T16:56:54.925Z,3.53
2018-07-09T16:59:33.853Z,2.73
2018-07-09T17:02:02.589Z,2.23
2018-07-09T17:04:37.117Z,4.93
2018-07-09T17:07:06.039Z,3.07
2018-07-09T17:09:39.477Z,4.20
2018-07-09T17:12:08.253Z,3.07
2018-07-09T17:14:36.989Z,2.43
2018-07-09T17:17:07.737Z,2.60
2018-07-09T17:19:36.465Z,5.20
2018-07-09T17:22:12.754Z,3.87
2018-07-09T17:24:56.446Z,2.27
2018-07-09T17:27:25.295Z,3.90
2018-07-09T17:29:54.941Z,2.23
2018-07-09T17:32:25.838Z,2.53
2018-07-09T17:34:54.629Z,4.10
2018-07-09T17:37:27.089Z,5.83
2018-07-09T17:39:56.849Z,3.03
2018-07-09T17:42:27.610Z,5.40
2018-07-09T17:44:56.071Z,3.47
2018-07-09T17:47:29.776Z,5.87
2018-07-09T17:49:58.576Z,3.30
2018-07-09T17:52:27.365Z,4.37
2018-07-09T17:54:56.141Z,2.43
2018-07-09T17:57:30.738Z,2.53
2018-07-09T18:00:02.981Z,7.47
2018-07-09T18:02:36.745Z,3.40
2018-07-09T18:05:16.029Z,2.30
2018-07-09T18:07:49.332Z,2.40
2018-07-09T18:10:20.181Z,5.30
2018-07-09T18:12:49.865Z,4.20
2018-07-09T18:15:30.319Z,2.43
2018-07-09T18:18:10.184Z,2.27
2018-07-09T18:20:39.009Z,1.90
2018-07-09T18:23:13.382Z,4.10
2018-07-09T18:25:42.241Z,4.10
2018-07-09T18:28:23.309Z,2.33
2018-07-09T18:30:55.785Z,2.50
2018-07-09T18:33:24.542Z,4.33
2018-07-09T18:36:11.816Z,3.20
2018-07-09T18:38:41.098Z,2.57
2018-07-09T18:41:17.409Z,5.87
2018-07-09T18:43:51.528Z,5.93
2018-07-09T18:46:25.909Z,1.97
2018-07-09T18:48:56.908Z,4.10
2018-07-09T18:51:31.333Z,3.43
2018-07-09T18:54:04.213Z,3.33
2018-07-09T18:56:36.260Z,5.47
2018-07-09T18:59:10.277Z,2.23
2018-07-09T19:04:48.399Z,2.30
2018-07-09T19:07:26.393Z,3.63
2018-07-09T19:10:00.178Z,3.27
2018-07-09T19:12:35.232Z,3.17
2018-07-09T19:15:05.929Z,2.90
2018-07-09T19:18:00.565Z,2.33
2018-07-09T19:20:40.712Z,2.43
2018-07-09T19:23:09.096Z,2.43
2018-07-09T19:25:54.672Z,3.80
2018-07-09T19:28:24.357Z,3.13
2018-07-09T19:30:52.104Z,1.80
2018-07-09T19:33:32.041Z,2.13
2018-07-09T19:38:54.210Z,6.13
2018-07-09T19:41:29.453Z,1.70
2018-07-09T19:44:06.728Z,1.60
2018-07-09T19:46:35.313Z,2.17
2018-07-09T19:49:08.700Z,2.03
2018-07-09T19:51:36.604Z,5.30
2018-07-09T19:54:06.168Z,1.90
2018-07-09T19:56:35.897Z,3.97
2018-07-09T19:59:04.528Z,2.27
2018-07-09T20:01:34.204Z,3.37
2018-07-09T20:04:01.961Z,5.90
2018-07-09T20:06:31.608Z,2.13
2018-07-09T20:09:10.081Z,2.80
2018-07-09T20:11:49.660Z,2.00
2018-07-09T20:14:23.572Z,2.57
2018-07-09T20:16:57.836Z,2.97
2018-07-09T20:19:29.236Z,3.47
2018-07-09T20:22:01.940Z,7.83
2018-07-09T20:24:34.712Z,5.00
2018-07-09T20:27:05.632Z,2.10
2018-07-09T20:29:33.328Z,2.03
2018-07-09T20:32:02.033Z,5.30
2018-07-09T20:34:31.748Z,2.27
2018-07-09T20:37:07.542Z,1.80
2018-07-09T20:39:35.324Z,2.27
2018-07-09T20:42:07.456Z,2.90
2018-07-09T20:47:28.428Z,2.80
2018-07-09T20:50:16.117Z,2.97
2018-07-09T20:52:49.604Z,1.87
2018-07-09T20:55:21.068Z,4.03
2018-07-09T20:57:49.752Z,6.80
2018-07-09T21:00:21.616Z,2.07
2018-07-09T21:02:49.596Z,2.13
2018-07-09T21:05:17.325Z,3.93
2018-07-09T21:07:48.896Z,2.00
2018-07-09T21:10:16.784Z,2.63
2018-07-09T21:12:58.581Z,4.03
2018-07-09T21:15:28.481Z,2.50
2018-07-09T21:17:57.148Z,6.90
2018-07-09T21:20:25.932Z,5.27
2018-07-09T21:22:59.021Z,1.83
2018-07-09T21:25:33.776Z,2.60
2018-07-09T21:28:02.540Z,3.13
2018-07-09T21:30:30.296Z,2.33
2018-07-09T21:33:01.761Z,1.80
2018-07-09T21:35:30.556Z,1.77
2018-07-09T21:38:01.381Z,3.17
2018-07-09T21:40:29.040Z,4.70
2018-07-09T21:42:57.820Z,2.10
2018-07-09T21:45:28.907Z,3.63
2018-07-09T21:48:10.558Z,1.90
2018-07-09T21:50:28.068Z,3.03
2018-07-09T21:52:57.835Z,3.93
2018-07-09T21:55:29.450Z,1.90
2018-07-09T21:57:57.199Z,2.40
2018-07-09T22:00:32.653Z,4.23
2018-07-09T22:03:00.427Z,1.70
2018-07-09T22:05:28.156Z,3.03
2018-07-09T22:07:56.824Z,2.10
2018-07-09T22:10:24.600Z,4.07
2018-07-09T22:12:55.804Z,3.40
2018-07-09T22:15:23.576Z,2.60
2018-07-09T22:17:53.228Z,2.70
2018-07-09T22:20:24.164Z,5.40
2018-07-09T22:22:55.951Z,2.83
2018-07-09T22:25:23.736Z,2.77
2018-07-09T22:27:52.436Z,3.63
2018-07-09T22:30:27.132Z,5.43
2018-07-09T22:32:55.793Z,2.50
2018-07-09T22:35:33.980Z,7.10
2018-07-09T22:38:04.824Z,4.83
2018-07-09T22:40:33.724Z,5.63
2018-07-09T22:43:12.332Z,2.63
2018-07-09T22:45:43.116Z,3.20
2018-07-09T22:48:15.644Z,4.07
2018-07-09T22:50:50.108Z,6.73
2018-07-09T22:53:18.961Z,3.13
2018-07-09T22:55:59.308Z,2.10
2018-07-09T22:58:34.972Z,2.43
2018-07-09T23:01:05.888Z,2.33
2018-07-09T23:03:34.856Z,2.30
2018-07-09T23:06:05.784Z,2.17
2018-07-09T23:08:53.428Z,2.60
2018-07-09T23:12:37.064Z,2.27
2018-07-09T23:15:31.124Z,2.90
2018-07-09T23:18:11.492Z,2.13
2018-07-09T23:22:54.188Z,2.77
2018-07-09T23:25:25.532Z,1.97
2018-07-09T23:27:57.328Z,6.20
2018-07-09T23:30:25.108Z,2.67
2018-07-09T23:32:56.832Z,2.93
2018-07-09T23:35:24.616Z,4.83
2018-07-09T23:37:53.420Z,2.30
2018-07-09T23:40:21.248Z,2.17
2018-07-09T23:42:49.924Z,3.33
2018-07-09T23:45:17.688Z,2.60
2018-07-09T23:47:56.236Z,3.20
2018-07-09T23:50:36.995Z,2.37
2018-07-09T23:53:06.796Z,2.97
2018-07-09T23:55:36.191Z,2.73
2018-07-09T23:59:20.236Z,2.97
